createdAt,value
2018-07-31T00:00:46.015Z,25.33
2018-07-31T00:01:46.005Z,25.35
2018-07-31T00:02:46.002Z,25.23
2018-07-31T00:03:45.980Z,25.23
2018-07-31T00:04:46.038Z,25.27
2018-07-31T00:05:45.961Z,25.15
2018-07-31T00:06:45.950Z,25.21
2018-07-31T00:07:45.941Z,25.21
2018-07-31T00:08:45.930Z,25.15
2018-07-31T00:09:45.981Z,25.10
2018-07-31T00:10:45.912Z,25.17
2018-07-31T00:11:45.895Z,25.10
2018-07-31T00:12:45.887Z,25.02
2018-07-31T00:13:45.876Z,24.99
2018-07-31T00:14:45.931Z,25.05
2018-07-31T00:15:45.854Z,25.06
2018-07-31T00:16:46.486Z,25.08
2018-07-31T00:17:45.831Z,24.96
2018-07-31T00:18:45.822Z,24.96
2018-07-31T00:19:45.881Z,24.98
2018-07-31T00:20:45.798Z,24.98
2018-07-31T00:21:45.853Z,24.91
2018-07-31T00:22:45.776Z,24.91
2018-07-31T00:23:45.766Z,24.93
2018-07-31T00:24:45.755Z,24.98
2018-07-31T00:25:45.809Z,24.98
2018-07-31T00:26:45.729Z,24.88
2018-07-31T00:27:45.721Z,24.98
2018-07-31T00:28:45.710Z,24.80
2018-07-31T00:29:45.698Z,24.85
2018-07-31T00:30:45.751Z,24.90
2018-07-31T00:31:45.674Z,24.93
2018-07-31T00:32:45.663Z,24.84
2018-07-31T00:33:45.662Z,24.84
2018-07-31T00:34:45.644Z,24.88
2018-07-31T00:35:45.696Z,24.77
2018-07-31T00:36:45.645Z,24.77
2018-07-31T00:37:46.489Z,24.80
2018-07-31T00:38:45.602Z,24.73
2018-07-31T00:39:45.599Z,24.76
2018-07-31T00:40:45.641Z,24.73
2018-07-31T00:41:45.566Z,24.73
2018-07-31T00:42:45.555Z,24.62
2018-07-31T00:43:45.544Z,24.58
2018-07-31T00:44:45.535Z,24.60
2018-07-31T00:45:45.594Z,24.64
2018-07-31T00:46:45.513Z,24.65
2018-07-31T00:47:45.505Z,24.68
2018-07-31T00:48:45.494Z,24.68
2018-07-31T00:49:45.480Z,24.65
2018-07-31T00:50:45.559Z,24.58
2018-07-31T00:51:45.461Z,24.60
2018-07-31T00:52:45.450Z,24.52
2018-07-31T00:53:45.434Z,24.49
2018-07-31T00:54:45.425Z,24.52
2018-07-31T00:55:45.477Z,24.50
2018-07-31T00:56:45.404Z,24.49
2018-07-31T00:57:45.397Z,24.50
2018-07-31T00:58:45.984Z,24.52
2018-07-31T00:59:45.372Z,24.53
2018-07-31T01:00:45.422Z,24.52
2018-07-31T01:01:45.350Z,24.45
2018-07-31T01:02:45.339Z,24.52
2018-07-31T01:03:45.332Z,24.32
2018-07-31T01:04:45.318Z,24.31
2018-07-31T01:05:45.369Z,24.42
2018-07-31T01:06:45.337Z,24.39
2018-07-31T01:07:45.283Z,24.34
2018-07-31T01:08:45.275Z,24.30
2018-07-31T01:09:45.271Z,24.28
2018-07-31T01:10:45.317Z,24.27
2018-07-31T01:11:45.244Z,24.22
2018-07-31T01:12:45.231Z,24.27
2018-07-31T01:13:45.223Z,24.21
2018-07-31T01:14:45.209Z,24.27
2018-07-31T01:15:45.260Z,24.18
2018-07-31T01:16:45.191Z,24.21
2018-07-31T01:17:45.178Z,24.13
2018-07-31T01:18:45.168Z,24.18
2018-07-31T01:19:45.990Z,24.10
2018-07-31T01:20:45.206Z,24.08
2018-07-31T01:21:45.134Z,24.10
2018-07-31T01:22:45.121Z,24.09
2018-07-31T01:23:45.110Z,23.95
2018-07-31T01:24:45.099Z,24.09
2018-07-31T01:25:45.559Z,24.06
2018-07-31T01:26:45.079Z,23.91
2018-07-31T01:27:45.068Z,23.98
2018-07-31T01:28:45.057Z,23.95
2018-07-31T01:29:45.046Z,23.93
2018-07-31T01:30:45.099Z,23.94
2018-07-31T01:31:45.027Z,23.95
2018-07-31T01:32:45.015Z,23.91
2018-07-31T01:33:45.001Z,23.88
2018-07-31T01:34:44.994Z,23.87
2018-07-31T01:35:45.048Z,23.90
2018-07-31T01:36:44.971Z,23.85
2018-07-31T01:37:44.966Z,23.85
2018-07-31T01:38:44.951Z,23.87
2018-07-31T01:39:44.940Z,23.87
2018-07-31T01:40:45.060Z,23.94
2018-07-31T01:41:44.918Z,23.87
2018-07-31T01:42:44.910Z,23.90
2018-07-31T01:43:44.896Z,23.87
2018-07-31T01:44:44.887Z,23.85
2018-07-31T01:45:44.948Z,23.91
2018-07-31T01:46:44.868Z,23.93
2018-07-31T01:47:44.857Z,23.90
2018-07-31T01:48:44.848Z,23.87
2018-07-31T01:49:44.832Z,23.79
2018-07-31T01:50:44.885Z,23.79
2018-07-31T01:51:44.813Z,23.79
2018-07-31T01:52:44.804Z,23.79
2018-07-31T01:53:45.493Z,23.87
2018-07-31T01:54:44.780Z,23.78
2018-07-31T01:55:44.833Z,23.83
2018-07-31T01:56:44.760Z,23.76
2018-07-31T01:57:45.489Z,23.78
2018-07-31T01:58:44.736Z,23.79
2018-07-31T01:59:44.817Z,23.76
2018-07-31T02:00:44.793Z,23.73
2018-07-31T02:01:45.484Z,23.78
2018-07-31T02:02:44.697Z,23.76
2018-07-31T02:03:44.688Z,23.78
2018-07-31T02:04:44.750Z,23.72
2018-07-31T02:05:44.666Z,23.78
2018-07-31T02:06:44.716Z,23.69
2018-07-31T02:07:44.651Z,23.79
2018-07-31T02:08:44.633Z,23.69
2018-07-31T02:09:44.622Z,23.69
2018-07-31T02:10:44.616Z,23.69
2018-07-31T02:11:44.671Z,23.61
2018-07-31T02:12:44.594Z,23.63
2018-07-31T02:13:44.589Z,23.66
2018-07-31T02:14:44.569Z,23.66
2018-07-31T02:15:44.558Z,23.65
2018-07-31T02:16:44.630Z,23.65
2018-07-31T02:17:44.537Z,23.66
2018-07-31T02:18:44.525Z,23.66
2018-07-31T02:19:44.514Z,23.65
2018-07-31T02:20:44.503Z,23.65
2018-07-31T02:21:44.561Z,23.55
2018-07-31T02:22:44.985Z,23.60
2018-07-31T02:23:44.478Z,23.63
2018-07-31T02:24:44.467Z,23.57
2018-07-31T02:25:44.456Z,23.51
2018-07-31T02:26:44.506Z,23.54
2018-07-31T02:27:44.436Z,23.57
2018-07-31T02:28:44.484Z,23.51
2018-07-31T02:29:44.415Z,23.53
2018-07-31T02:30:44.401Z,23.54
2018-07-31T02:31:44.456Z,23.50
2018-07-31T02:32:44.379Z,23.46
2018-07-31T02:33:44.370Z,23.48
2018-07-31T02:34:44.364Z,23.39
2018-07-31T02:35:44.350Z,23.36
2018-07-31T02:36:44.401Z,23.46
2018-07-31T02:37:44.329Z,23.43
2018-07-31T02:38:44.317Z,23.39
2018-07-31T02:39:44.306Z,23.32
2018-07-31T02:40:44.300Z,23.27
2018-07-31T02:41:44.354Z,23.33
2018-07-31T02:42:44.275Z,23.27
2018-07-31T02:43:44.991Z,23.27
2018-07-31T02:44:44.253Z,23.20
2018-07-31T02:45:44.243Z,23.33
2018-07-31T02:46:44.298Z,23.22
2018-07-31T02:47:44.224Z,23.15
2018-07-31T02:48:44.209Z,23.10
2018-07-31T02:49:44.201Z,23.13
2018-07-31T02:50:44.190Z,23.07
2018-07-31T02:51:44.243Z,23.01
2018-07-31T02:52:44.176Z,23.12
2018-07-31T02:53:44.157Z,23.07
2018-07-31T02:54:44.149Z,23.07
2018-07-31T02:55:44.138Z,23.01
2018-07-31T02:56:44.193Z,22.95
2018-07-31T02:57:44.114Z,22.94
2018-07-31T02:58:44.108Z,23.01
2018-07-31T02:59:44.099Z,22.92
2018-07-31T03:00:44.084Z,22.90
2018-07-31T03:01:44.137Z,22.95
2018-07-31T03:02:44.065Z,22.92
2018-07-31T03:03:44.051Z,22.98
2018-07-31T03:04:44.983Z,22.97
2018-07-31T03:05:44.032Z,22.92
2018-07-31T03:06:51.608Z,22.95
2018-07-31T03:07:52.136Z,22.91
2018-07-31T03:08:43.999Z,22.82
2018-07-31T03:09:52.052Z,22.85
2018-07-31T03:10:43.985Z,22.90
2018-07-31T03:11:44.029Z,22.85
2018-07-31T03:12:43.955Z,22.75
2018-07-31T03:13:43.946Z,22.83
2018-07-31T03:14:43.936Z,22.76
2018-07-31T03:15:43.922Z,22.80
2018-07-31T03:16:43.975Z,22.72
2018-07-31T03:17:51.998Z,22.70
2018-07-31T03:18:43.893Z,22.72
2018-07-31T03:19:43.888Z,22.77
2018-07-31T03:20:43.869Z,22.68
2018-07-31T03:21:43.927Z,22.64
2018-07-31T03:22:43.846Z,22.70
2018-07-31T03:23:43.839Z,22.68
2018-07-31T03:24:43.825Z,22.64
2018-07-31T03:25:43.818Z,22.55
2018-07-31T03:26:44.190Z,22.60
2018-07-31T03:27:43.794Z,22.67
2018-07-31T03:28:43.783Z,22.67
2018-07-31T03:29:43.778Z,22.58
2018-07-31T03:30:43.761Z,22.52
2018-07-31T03:31:43.820Z,22.45
2018-07-31T03:32:43.745Z,22.43
2018-07-31T03:33:43.734Z,22.39
2018-07-31T03:34:43.735Z,22.51
2018-07-31T03:35:43.712Z,22.39
2018-07-31T03:36:43.761Z,22.42
2018-07-31T03:37:43.687Z,22.43
2018-07-31T03:38:44.613Z,22.39
2018-07-31T03:39:43.672Z,22.43
2018-07-31T03:40:43.656Z,22.42
2018-07-31T03:41:43.711Z,22.43
2018-07-31T03:42:43.633Z,22.40
2018-07-31T03:43:43.622Z,22.49
2018-07-31T03:44:43.619Z,22.35
2018-07-31T03:45:43.601Z,22.35
2018-07-31T03:46:43.655Z,22.42
2018-07-31T03:47:43.584Z,22.35
2018-07-31T03:48:43.573Z,22.42
2018-07-31T03:49:43.567Z,22.42
2018-07-31T03:50:43.550Z,22.42
2018-07-31T03:51:43.611Z,22.42
2018-07-31T03:52:43.525Z,22.36
2018-07-31T03:53:43.578Z,22.33
2018-07-31T03:54:43.504Z,22.37
2018-07-31T03:55:43.495Z,22.45
2018-07-31T03:56:43.482Z,22.36
2018-07-31T03:57:43.549Z,22.35
2018-07-31T03:58:43.459Z,22.30
2018-07-31T03:59:44.108Z,22.31
2018-07-31T04:00:43.440Z,22.39
2018-07-31T04:01:43.431Z,22.37
2018-07-31T04:02:43.481Z,22.40
2018-07-31T04:03:43.411Z,22.36
2018-07-31T04:04:43.440Z,22.35
2018-07-31T04:05:43.387Z,22.37
2018-07-31T04:06:43.388Z,22.36
2018-07-31T04:07:43.436Z,22.33
2018-07-31T04:08:43.359Z,22.30
2018-07-31T04:09:43.346Z,22.30
2018-07-31T04:10:43.332Z,22.30
2018-07-31T04:11:43.326Z,22.35
2018-07-31T04:12:43.377Z,22.30
2018-07-31T04:13:43.301Z,22.25
2018-07-31T04:14:43.294Z,22.36
2018-07-31T04:15:43.283Z,22.31
2018-07-31T04:16:43.289Z,22.28
2018-07-31T04:17:43.334Z,22.31
2018-07-31T04:18:43.249Z,22.24
2018-07-31T04:19:43.238Z,22.27
2018-07-31T04:20:44.109Z,22.25
2018-07-31T04:21:43.215Z,22.21
2018-07-31T04:22:43.268Z,22.30
2018-07-31T04:23:43.196Z,22.36
2018-07-31T04:24:43.191Z,22.42
2018-07-31T04:25:43.174Z,22.36
2018-07-31T04:26:43.161Z,22.39
2018-07-31T04:27:43.213Z,22.37
2018-07-31T04:28:43.138Z,22.37
2018-07-31T04:29:43.130Z,22.39
2018-07-31T04:30:43.124Z,22.33
2018-07-31T04:31:43.114Z,22.39
2018-07-31T04:32:43.163Z,22.45
2018-07-31T04:33:43.094Z,22.36
2018-07-31T04:34:43.078Z,22.46
2018-07-31T04:35:43.073Z,22.39
2018-07-31T04:36:43.055Z,22.51
2018-07-31T04:37:43.109Z,22.47
2018-07-31T04:38:43.033Z,22.42
2018-07-31T04:39:43.020Z,22.40
2018-07-31T04:40:43.009Z,22.40
2018-07-31T04:41:43.609Z,22.47
2018-07-31T04:42:43.055Z,22.43
2018-07-31T04:43:42.978Z,22.47
2018-07-31T04:44:42.972Z,22.51
2018-07-31T04:45:42.959Z,22.46
2018-07-31T04:46:42.947Z,22.49
2018-07-31T04:47:43.003Z,22.52
2018-07-31T04:48:42.931Z,22.55
2018-07-31T04:49:42.914Z,22.61
2018-07-31T04:50:42.911Z,22.65
2018-07-31T04:51:42.898Z,22.62
2018-07-31T04:52:42.955Z,22.64
2018-07-31T04:53:42.872Z,22.67
2018-07-31T04:54:42.863Z,22.61
2018-07-31T04:55:42.850Z,22.61
2018-07-31T04:56:42.893Z,22.60
2018-07-31T04:57:42.895Z,22.55
2018-07-31T04:58:42.818Z,22.64
2018-07-31T04:59:42.806Z,22.64
2018-07-31T05:00:42.798Z,22.70
2018-07-31T05:01:42.787Z,22.64
2018-07-31T05:02:43.181Z,22.62
2018-07-31T05:03:42.770Z,22.62
2018-07-31T05:04:42.756Z,22.68
2018-07-31T05:05:42.745Z,22.75
2018-07-31T05:06:42.737Z,22.72
2018-07-31T05:07:43.181Z,22.65
2018-07-31T05:08:42.712Z,22.54
2018-07-31T05:09:42.704Z,22.61
2018-07-31T05:10:42.692Z,22.65
2018-07-31T05:11:42.702Z,22.75
2018-07-31T05:12:42.736Z,22.72
2018-07-31T05:13:42.659Z,22.64
2018-07-31T05:14:42.648Z,22.62
2018-07-31T05:15:42.638Z,22.62
2018-07-31T05:16:42.636Z,22.61
2018-07-31T05:17:42.682Z,22.57
2018-07-31T05:18:42.613Z,22.55
2018-07-31T05:19:42.675Z,22.62
2018-07-31T05:20:42.656Z,22.65
2018-07-31T05:21:42.656Z,22.57
2018-07-31T05:22:42.690Z,22.58
2018-07-31T05:23:43.116Z,22.54
2018-07-31T05:24:43.145Z,22.67
2018-07-31T05:25:42.543Z,22.60
2018-07-31T05:26:42.529Z,22.72
2018-07-31T05:32:32.137Z,23.01
2018-07-31T05:33:31.558Z,23.04
2018-07-31T05:34:31.507Z,23.04
2018-07-31T05:35:31.372Z,23.16
2018-07-31T05:36:32.529Z,23.16
2018-07-31T05:37:31.540Z,23.15
2018-07-31T05:38:31.399Z,23.31
2018-07-31T05:39:31.570Z,23.40
2018-07-31T05:40:39.939Z,23.32
2018-07-31T05:54:33.829Z,24.24
2018-07-31T05:55:33.490Z,24.30
2018-07-31T05:56:33.473Z,24.40
2018-07-31T05:57:33.539Z,24.58
2018-07-31T05:58:33.555Z,24.65
2018-07-31T05:59:33.451Z,24.71
2018-07-31T06:00:34.079Z,24.80
2018-07-31T06:01:33.421Z,24.77
2018-07-31T06:02:33.415Z,25.03
2018-07-31T06:03:33.504Z,25.03
2018-07-31T06:04:33.388Z,25.13
2018-07-31T06:05:33.386Z,25.27
2018-07-31T06:06:33.368Z,25.43
2018-07-31T06:07:33.379Z,25.52
2018-07-31T06:08:33.408Z,25.67
2018-07-31T06:09:33.393Z,25.73
2018-07-31T06:10:33.327Z,25.87
2018-07-31T06:11:33.331Z,25.98
2018-07-31T06:12:33.302Z,26.12
2018-07-31T06:13:33.381Z,26.10
2018-07-31T06:14:33.286Z,26.33
2018-07-31T06:15:34.093Z,26.54
2018-07-31T06:16:33.268Z,26.73
2018-07-31T06:17:33.276Z,26.80
2018-07-31T06:18:33.323Z,26.76
2018-07-31T06:19:33.229Z,26.87
2018-07-31T06:20:33.232Z,26.84
2018-07-31T06:21:33.218Z,26.94
2018-07-31T06:24:04.361Z,27.06
2018-07-31T06:25:04.307Z,27.09
2018-07-31T06:26:04.256Z,27.19
2018-07-31T06:27:04.223Z,27.28
2018-07-31T06:28:11.827Z,27.32
2018-07-31T06:29:04.115Z,27.28
2018-07-31T06:30:04.207Z,27.32
2018-07-31T06:31:04.079Z,27.24
2018-07-31T06:32:04.140Z,27.24
2018-07-31T06:33:04.041Z,27.21
2018-07-31T06:34:04.062Z,27.14
2018-07-31T06:35:04.745Z,27.17
2018-07-31T06:36:03.980Z,27.04
2018-07-31T06:37:03.968Z,27.00
2018-07-31T06:38:03.965Z,26.85
2018-07-31T06:39:04.015Z,26.87
2018-07-31T06:40:03.949Z,26.89
2018-07-31T06:41:03.929Z,26.80
2018-07-31T06:42:03.918Z,26.87
2018-07-31T06:43:03.910Z,26.85
2018-07-31T06:44:03.965Z,26.75
2018-07-31T06:45:03.888Z,26.77
2018-07-31T06:46:03.874Z,26.75
2018-07-31T06:47:03.968Z,26.70
2018-07-31T06:48:03.855Z,26.73
2018-07-31T06:49:04.317Z,26.70
2018-07-31T06:50:03.838Z,26.76
2018-07-31T06:51:03.856Z,26.80
2018-07-31T06:52:03.813Z,26.82
2018-07-31T06:53:03.802Z,26.76
2018-07-31T06:54:03.864Z,26.77
2018-07-31T06:55:03.782Z,26.77
2018-07-31T06:56:03.774Z,26.77
2018-07-31T06:57:03.789Z,26.87
2018-07-31T06:58:03.754Z,26.89
2018-07-31T06:59:03.812Z,26.97
2018-07-31T07:00:03.815Z,26.99
2018-07-31T07:01:11.591Z,27.03
2018-07-31T07:02:13.326Z,27.00
2018-07-31T07:04:10.523Z,27.28
2018-07-31T07:05:18.641Z,27.29
2018-07-31T07:06:10.423Z,27.43
2018-07-31T07:07:18.169Z,27.51
2018-07-31T07:08:10.359Z,27.60
2018-07-31T07:11:43.321Z,28.09
2018-07-31T07:15:02.936Z,28.66
2018-07-31T07:17:11.929Z,28.78
2018-07-31T07:18:11.836Z,28.90
2018-07-31T07:19:11.854Z,28.95
2018-07-31T07:20:11.739Z,29.04
2018-07-31T07:21:11.718Z,29.41
2018-07-31T07:22:11.693Z,29.71
2018-07-31T07:23:12.583Z,29.79
2018-07-31T07:24:11.758Z,30.00
2018-07-31T07:25:11.674Z,30.29
2018-07-31T07:26:11.662Z,30.49
2018-07-31T07:27:11.649Z,30.61
2018-07-31T07:28:11.641Z,30.88
2018-07-31T07:29:11.700Z,31.01
2018-07-31T07:30:11.613Z,31.21
2018-07-31T07:31:11.612Z,31.23
2018-07-31T07:32:11.601Z,31.12
2018-07-31T07:33:11.588Z,31.06
2018-07-31T07:34:11.656Z,30.99
2018-07-31T07:35:11.568Z,31.02
2018-07-31T07:36:12.464Z,30.99
2018-07-31T07:37:11.546Z,31.53
2018-07-31T07:38:12.460Z,31.91
2018-07-31T07:39:11.597Z,32.10
2018-07-31T07:40:11.528Z,31.89
2018-07-31T07:41:11.515Z,31.78
2018-07-31T07:42:11.499Z,31.48
2018-07-31T07:43:11.490Z,31.32
2018-07-31T07:44:11.550Z,31.19
2018-07-31T07:45:11.468Z,31.01
2018-07-31T07:46:11.462Z,30.97
2018-07-31T07:47:11.461Z,31.01
2018-07-31T07:48:11.440Z,31.02
2018-07-31T07:49:11.505Z,31.16
2018-07-31T07:50:11.423Z,31.29
2018-07-31T07:51:11.425Z,31.46
2018-07-31T07:52:11.398Z,31.65
2018-07-31T07:53:11.392Z,32.01
2018-07-31T07:54:11.543Z,32.25
2018-07-31T07:55:11.370Z,32.67
2018-07-31T07:56:11.362Z,32.67
2018-07-31T07:57:11.354Z,33.04
2018-07-31T07:58:11.340Z,33.34
2018-07-31T07:59:11.542Z,33.32
2018-07-31T08:00:11.324Z,33.66
2018-07-31T08:01:11.318Z,33.93
2018-07-31T08:02:11.331Z,34.16
2018-07-31T08:03:11.343Z,34.10
2018-07-31T08:04:11.305Z,34.21
2018-07-31T08:05:11.340Z,34.30
2018-07-31T08:06:11.265Z,34.19
2018-07-31T08:07:11.259Z,34.28
2018-07-31T08:08:11.250Z,33.91
2018-07-31T08:09:11.237Z,34.08
2018-07-31T08:10:11.311Z,34.06
2018-07-31T08:11:11.224Z,34.40
2018-07-31T08:12:11.259Z,34.61
2018-07-31T08:13:11.201Z,34.69
2018-07-31T08:14:11.961Z,34.89
2018-07-31T08:15:11.245Z,34.88
2018-07-31T08:16:11.189Z,34.73
2018-07-31T08:17:11.167Z,34.85
2018-07-31T08:18:11.164Z,34.84
2018-07-31T08:19:11.153Z,34.75
2018-07-31T08:20:14.548Z,34.84
2018-07-31T08:21:11.134Z,34.92
2018-07-31T08:22:11.126Z,35.11
2018-07-31T08:23:11.117Z,35.34
2018-07-31T08:24:11.108Z,35.70
2018-07-31T08:25:11.158Z,35.82
2018-07-31T08:26:11.089Z,35.96
2018-07-31T08:27:11.083Z,35.97
2018-07-31T08:28:11.070Z,35.82
2018-07-31T08:29:11.064Z,36.07
2018-07-31T08:30:11.117Z,36.34
2018-07-31T08:31:11.045Z,36.49
2018-07-31T08:32:11.038Z,36.60
2018-07-31T08:33:11.030Z,36.75
2018-07-31T08:34:11.022Z,36.87
2018-07-31T08:35:11.085Z,37.00
2018-07-31T08:36:11.008Z,37.10
2018-07-31T08:37:11.001Z,37.31
2018-07-31T08:38:10.988Z,37.51
2018-07-31T08:39:10.981Z,37.67
2018-07-31T08:40:11.041Z,37.93
2018-07-31T08:41:11.971Z,38.01
2018-07-31T08:42:10.957Z,38.18
2018-07-31T08:43:10.948Z,38.04
2018-07-31T08:44:10.940Z,38.15
2018-07-31T08:45:10.999Z,38.32
2018-07-31T08:46:10.926Z,38.69
2018-07-31T08:47:10.918Z,38.74
2018-07-31T08:48:10.907Z,38.41
2018-07-31T08:49:10.904Z,38.15
2018-07-31T08:50:10.957Z,37.55
2018-07-31T08:51:10.941Z,37.37
2018-07-31T08:52:10.876Z,37.88
2018-07-31T08:53:10.868Z,37.97
2018-07-31T08:54:10.859Z,37.44
2018-07-31T08:55:10.918Z,37.22
2018-07-31T08:56:10.848Z,37.03
2018-07-31T08:57:10.842Z,37.18
2018-07-31T08:58:10.828Z,37.57
2018-07-31T08:59:10.819Z,38.15
2018-07-31T09:00:10.872Z,38.11
2018-07-31T09:01:10.806Z,38.18
2018-07-31T09:02:11.454Z,38.38
2018-07-31T09:03:10.789Z,38.34
2018-07-31T09:04:10.783Z,38.61
2018-07-31T09:05:10.833Z,38.09
2018-07-31T09:06:10.765Z,38.16
2018-07-31T09:07:10.755Z,38.49
2018-07-31T09:08:10.755Z,38.76
2018-07-31T09:09:10.739Z,38.71
2018-07-31T09:10:10.791Z,38.56
2018-07-31T09:11:10.722Z,38.95
2018-07-31T09:12:10.714Z,38.93
2018-07-31T09:13:10.704Z,39.04
2018-07-31T09:14:10.699Z,39.14
2018-07-31T09:15:10.756Z,39.13
2018-07-31T09:16:10.679Z,39.17
2018-07-31T09:17:10.679Z,39.36
2018-07-31T09:18:10.666Z,39.57
2018-07-31T09:19:10.657Z,39.84
2018-07-31T09:20:10.715Z,40.01
2018-07-31T09:21:10.640Z,40.08
2018-07-31T09:22:10.637Z,40.23
2018-07-31T09:23:11.450Z,40.22
2018-07-31T09:24:10.633Z,40.58
2018-07-31T09:25:10.688Z,40.16
2018-07-31T09:26:10.603Z,39.67
2018-07-31T09:27:10.596Z,40.22
2018-07-31T09:28:10.587Z,40.60
2018-07-31T09:29:10.581Z,40.76
2018-07-31T09:30:10.641Z,40.58
2018-07-31T09:31:10.591Z,40.79
2018-07-31T09:32:10.559Z,41.10
2018-07-31T09:33:10.552Z,40.73
2018-07-31T09:34:10.544Z,40.50
2018-07-31T09:35:10.605Z,40.35
2018-07-31T09:36:10.524Z,40.27
2018-07-31T09:37:10.519Z,40.10
2018-07-31T09:38:10.555Z,40.54
2018-07-31T09:39:10.504Z,40.65
2018-07-31T09:40:10.573Z,40.73
2018-07-31T09:41:10.487Z,40.77
2018-07-31T09:42:10.482Z,40.48
2018-07-31T09:43:10.473Z,40.35
2018-07-31T09:44:17.989Z,40.45
2018-07-31T09:45:10.458Z,40.65
2018-07-31T09:46:10.513Z,40.41
2018-07-31T09:47:10.442Z,40.08
2018-07-31T09:48:10.434Z,39.88
2018-07-31T09:49:10.426Z,39.72
2018-07-31T09:50:10.418Z,39.98
2018-07-31T09:51:10.473Z,40.29
2018-07-31T09:52:10.986Z,40.64
2018-07-31T09:53:10.392Z,40.99
2018-07-31T09:54:10.389Z,41.16
2018-07-31T09:55:10.379Z,41.20
2018-07-31T09:56:10.430Z,41.04
2018-07-31T09:57:10.422Z,41.14
2018-07-31T09:58:10.358Z,40.38
2018-07-31T09:59:10.401Z,39.62
2018-07-31T10:00:10.343Z,40.22
2018-07-31T10:01:10.404Z,40.18
2018-07-31T10:02:10.337Z,39.69
2018-07-31T10:03:10.322Z,39.11
2018-07-31T10:04:10.310Z,39.38
2018-07-31T10:05:11.034Z,40.60
2018-07-31T10:06:10.362Z,40.70
2018-07-31T10:07:10.285Z,40.61
2018-07-31T10:08:10.280Z,40.70
2018-07-31T10:09:10.271Z,40.06
2018-07-31T10:10:10.268Z,40.07
2018-07-31T10:11:10.329Z,40.53
2018-07-31T10:12:10.279Z,40.15
2018-07-31T10:13:10.240Z,39.72
2018-07-31T10:14:10.234Z,39.25
2018-07-31T10:15:10.226Z,39.30
2018-07-31T10:16:10.282Z,39.64
2018-07-31T10:17:10.215Z,40.50
2018-07-31T10:18:10.263Z,40.50
2018-07-31T10:19:10.195Z,41.26
2018-07-31T10:20:10.194Z,41.21
2018-07-31T10:21:10.239Z,41.54
2018-07-31T10:22:10.173Z,41.51
2018-07-31T10:23:10.161Z,40.82
2018-07-31T10:24:10.164Z,40.23
2018-07-31T10:25:10.147Z,39.85
2018-07-31T10:26:10.554Z,39.41
2018-07-31T10:27:10.128Z,39.09
2018-07-31T10:28:10.119Z,39.07
2018-07-31T10:29:10.113Z,38.84
2018-07-31T10:30:10.105Z,38.47
2018-07-31T10:31:10.155Z,38.37
2018-07-31T10:32:10.086Z,38.19
2018-07-31T10:33:10.082Z,38.01
2018-07-31T10:34:10.068Z,37.74
2018-07-31T10:35:10.057Z,37.46
2018-07-31T10:36:10.113Z,37.44
2018-07-31T10:37:10.049Z,37.25
2018-07-31T10:38:10.033Z,37.46
2018-07-31T10:39:10.027Z,38.16
2018-07-31T10:40:10.019Z,39.63
2018-07-31T10:41:10.068Z,40.07
2018-07-31T10:42:10.001Z,39.59
2018-07-31T10:43:09.990Z,39.81
2018-07-31T10:44:09.985Z,39.64
2018-07-31T10:45:09.973Z,39.14
2018-07-31T10:46:10.029Z,39.32
2018-07-31T10:47:10.478Z,39.16
2018-07-31T10:48:09.946Z,38.96
2018-07-31T10:49:09.943Z,38.96
2018-07-31T10:50:09.934Z,38.60
2018-07-31T10:51:10.072Z,38.93
2018-07-31T10:52:09.918Z,38.56
2018-07-31T10:53:09.916Z,38.40
2018-07-31T10:54:09.895Z,38.25
2018-07-31T10:55:17.999Z,38.13
2018-07-31T10:56:18.133Z,38.15
2018-07-31T10:57:18.014Z,37.89
2018-07-31T10:58:18.515Z,37.76
2018-07-31T10:59:17.935Z,37.63
2018-07-31T11:00:09.885Z,37.34
2018-07-31T11:01:09.894Z,37.44
2018-07-31T11:02:09.820Z,38.15
2018-07-31T11:03:17.345Z,39.01
2018-07-31T11:04:17.920Z,38.63
2018-07-31T11:05:18.394Z,39.14
2018-07-31T11:06:17.412Z,38.99
2018-07-31T11:07:17.298Z,39.38
2018-07-31T11:08:09.774Z,40.58
2018-07-31T11:09:09.758Z,40.19
2018-07-31T11:10:09.751Z,39.69
2018-07-31T11:11:09.800Z,39.16
2018-07-31T11:12:09.730Z,40.26
2018-07-31T11:13:09.884Z,39.89
2018-07-31T11:14:09.721Z,39.36
2018-07-31T11:15:09.703Z,39.16
2018-07-31T11:16:09.755Z,39.33
2018-07-31T11:17:10.330Z,39.06
2018-07-31T11:18:09.677Z,38.78
2018-07-31T11:19:09.668Z,38.59
2018-07-31T11:20:09.658Z,38.40
2018-07-31T11:21:09.828Z,38.18
2018-07-31T11:22:09.641Z,37.96
2018-07-31T11:23:09.701Z,37.74
2018-07-31T11:24:09.624Z,37.67
2018-07-31T11:25:09.614Z,37.47
2018-07-31T11:26:09.602Z,37.28
2018-07-31T11:27:09.655Z,37.18
2018-07-31T11:28:10.325Z,37.15
2018-07-31T11:29:09.577Z,37.06
2018-07-31T11:30:09.566Z,36.99
2018-07-31T11:31:09.557Z,37.02
2018-07-31T11:32:09.608Z,36.94
2018-07-31T11:33:09.556Z,36.99
2018-07-31T11:34:09.531Z,36.93
2018-07-31T11:35:09.519Z,36.94
2018-07-31T11:36:09.508Z,36.94
2018-07-31T11:37:09.557Z,36.91
2018-07-31T11:38:09.488Z,36.78
2018-07-31T11:39:09.480Z,36.64
2018-07-31T11:40:09.471Z,36.51
2018-07-31T11:41:09.460Z,36.59
2018-07-31T11:42:09.510Z,36.68
2018-07-31T11:43:09.443Z,36.78
2018-07-31T11:44:09.428Z,37.31
2018-07-31T11:45:09.424Z,38.18
2018-07-31T11:46:09.415Z,39.79
2018-07-31T11:47:09.462Z,39.44
2018-07-31T11:48:09.390Z,38.87
2018-07-31T11:49:10.329Z,38.59
2018-07-31T11:50:09.431Z,38.68
2018-07-31T11:51:09.365Z,39.38
2018-07-31T11:52:09.420Z,40.46
2018-07-31T11:53:09.345Z,41.37
2018-07-31T11:54:09.337Z,42.20
2018-07-31T11:55:09.329Z,42.76
2018-07-31T11:56:09.339Z,42.23
2018-07-31T11:57:09.378Z,41.45
2018-07-31T11:58:09.305Z,40.72
2018-07-31T11:59:09.297Z,40.08
2018-07-31T12:00:09.290Z,39.48
2018-07-31T12:01:09.282Z,39.10
2018-07-31T12:02:09.341Z,38.57
2018-07-31T12:03:09.262Z,38.34
2018-07-31T12:04:09.266Z,38.07
2018-07-31T12:05:09.243Z,37.76
2018-07-31T12:06:09.234Z,37.47
2018-07-31T12:07:09.286Z,37.36
2018-07-31T12:08:09.219Z,37.28
2018-07-31T12:09:09.208Z,37.25
2018-07-31T12:10:09.826Z,37.17
2018-07-31T12:11:09.189Z,37.07
2018-07-31T12:12:09.239Z,37.05
2018-07-31T12:13:09.170Z,36.99
2018-07-31T12:14:09.161Z,36.91
2018-07-31T12:15:09.156Z,36.78
2018-07-31T12:16:09.142Z,36.57
2018-07-31T12:17:09.192Z,36.60
2018-07-31T12:18:09.131Z,36.51
2018-07-31T12:19:09.164Z,36.50
2018-07-31T12:20:09.103Z,36.46
2018-07-31T12:21:09.094Z,36.44
2018-07-31T12:22:09.144Z,36.34
2018-07-31T12:23:09.075Z,36.73
2018-07-31T12:24:09.066Z,37.18
2018-07-31T12:25:09.056Z,37.67
2018-07-31T12:26:09.050Z,38.15
2018-07-31T12:27:09.113Z,38.72
2018-07-31T12:28:09.028Z,38.56
2018-07-31T12:29:09.024Z,38.93
2018-07-31T12:30:09.008Z,39.84
2018-07-31T12:31:09.832Z,40.77
2018-07-31T12:32:09.055Z,41.48
2018-07-31T12:33:09.054Z,41.06
2018-07-31T12:34:08.975Z,41.62
2018-07-31T12:35:08.970Z,41.16
2018-07-31T12:36:08.958Z,40.80
2018-07-31T12:37:09.010Z,41.37
2018-07-31T12:38:08.963Z,41.37
2018-07-31T12:39:08.933Z,42.49
2018-07-31T12:40:08.926Z,42.55
2018-07-31T12:41:08.921Z,41.78
2018-07-31T12:42:08.982Z,41.35
2018-07-31T12:43:08.902Z,40.98
2018-07-31T12:44:08.965Z,40.98
2018-07-31T12:45:08.887Z,40.65
2018-07-31T12:46:08.876Z,41.39
2018-07-31T12:47:08.944Z,42.50
2018-07-31T12:48:08.860Z,42.84
2018-07-31T12:49:08.849Z,43.37
2018-07-31T12:50:08.886Z,42.87
2018-07-31T12:51:08.834Z,42.77
2018-07-31T12:52:09.401Z,42.78
2018-07-31T12:53:08.820Z,42.76
2018-07-31T12:54:08.814Z,42.68
2018-07-31T12:55:08.805Z,43.64
2018-07-31T12:56:08.798Z,43.73
2018-07-31T12:57:08.847Z,43.84
2018-07-31T12:58:08.780Z,42.93
2018-07-31T12:59:08.775Z,42.43
2018-07-31T13:00:08.766Z,41.93
2018-07-31T13:01:08.755Z,41.48
2018-07-31T13:02:08.824Z,41.39
2018-07-31T13:03:08.743Z,41.25
2018-07-31T13:04:08.732Z,41.44
2018-07-31T13:05:08.727Z,42.45
2018-07-31T13:06:08.719Z,43.18
2018-07-31T13:07:08.710Z,43.81
2018-07-31T13:08:08.792Z,44.13
2018-07-31T13:09:08.696Z,44.43
2018-07-31T13:10:08.685Z,44.56
2018-07-31T13:11:08.684Z,44.95
2018-07-31T13:12:08.676Z,45.23
2018-07-31T13:13:08.908Z,45.29
2018-07-31T13:14:08.660Z,45.54
2018-07-31T13:15:08.651Z,45.69
2018-07-31T13:16:08.648Z,45.89
2018-07-31T13:17:08.636Z,45.95
2018-07-31T13:18:08.692Z,45.73
2018-07-31T13:19:08.625Z,45.95